createdAt,value
2019-04-03T00:01:09.547Z,9.01
2019-04-03T00:03:36.136Z,9.02
2019-04-03T00:06:03.719Z,9.02
2019-04-03T00:08:31.041Z,9.03
2019-04-03T00:10:57.721Z,9.03
2019-04-03T00:13:24.400Z,9.02
2019-04-03T00:15:50.976Z,9.02
2019-04-03T00:18:17.632Z,9.02
2019-04-03T00:20:44.202Z,9.02
2019-04-03T00:23:10.808Z,8.99
2019-04-03T00:25:37.384Z,9.00
2019-04-03T00:28:03.979Z,9.01
2019-04-03T00:30:30.551Z,9.01
2019-04-03T00:32:57.153Z,9.00
2019-04-03T00:35:23.956Z,9.02
2019-04-03T00:37:52.956Z,9.04
2019-04-03T00:40:19.061Z,9.07
2019-04-03T00:42:45.662Z,9.13
2019-04-03T00:45:12.236Z,9.19
2019-04-03T00:47:38.854Z,9.25
2019-04-03T00:50:05.447Z,9.32
2019-04-03T00:52:32.185Z,9.39
2019-04-03T00:54:58.802Z,9.46
2019-04-03T00:57:26.337Z,9.51
2019-04-03T00:59:54.680Z,9.55
2019-04-03T01:02:21.887Z,9.58
2019-04-03T01:04:48.458Z,9.60
2019-04-03T01:07:15.030Z,9.61
2019-04-03T01:09:41.606Z,9.61
2019-04-03T01:12:08.179Z,9.63
2019-04-03T01:14:34.757Z,9.63
2019-04-03T01:17:03.573Z,9.63
2019-04-03T01:19:29.626Z,9.62
2019-04-03T01:21:56.202Z,9.60
2019-04-03T01:24:22.793Z,9.58
2019-04-03T01:26:49.366Z,9.56
2019-04-03T01:29:15.998Z,9.54
2019-04-03T01:31:44.381Z,9.53
2019-04-03T01:34:11.088Z,9.50
2019-04-03T01:36:37.665Z,9.48
2019-04-03T01:39:04.236Z,9.46
2019-04-03T01:41:30.810Z,9.45
2019-04-03T01:43:57.454Z,9.41
2019-04-03T01:46:24.056Z,9.37
2019-04-03T01:48:50.632Z,9.32
2019-04-03T01:51:17.222Z,9.28
2019-04-03T01:53:43.795Z,9.23
2019-04-03T01:56:10.379Z,9.18
2019-04-03T01:58:37.003Z,9.13
2019-04-03T02:01:03.609Z,9.09
2019-04-03T02:03:30.435Z,9.07
2019-04-03T02:05:56.966Z,9.05
2019-04-03T02:08:23.683Z,9.01
2019-04-03T02:10:50.306Z,8.99
2019-04-03T02:13:16.883Z,8.96
2019-04-03T02:15:43.459Z,8.92
2019-04-03T02:18:10.050Z,8.91
2019-04-03T02:20:36.617Z,8.89
2019-04-03T02:23:03.203Z,8.88
2019-04-03T02:25:31.564Z,8.88
2019-04-03T02:27:58.114Z,8.87
2019-04-03T02:30:24.690Z,8.87
2019-04-03T02:32:51.255Z,8.85
2019-04-03T02:35:18.129Z,8.85
2019-04-03T02:37:48.426Z,8.85
2019-04-03T02:40:13.204Z,8.84
2019-04-03T02:42:41.255Z,8.85
2019-04-03T02:45:08.174Z,8.84
2019-04-03T02:47:34.818Z,8.83
2019-04-03T02:50:01.654Z,8.85
2019-04-03T02:52:28.376Z,8.84
2019-04-03T02:54:54.990Z,8.84
2019-04-03T02:57:21.565Z,8.84
2019-04-03T02:59:48.171Z,8.83
2019-04-03T03:02:14.801Z,8.81
2019-04-03T03:04:41.697Z,8.81
2019-04-03T03:07:08.312Z,8.78
2019-04-03T03:09:35.003Z,8.78
2019-04-03T03:12:01.678Z,8.76
2019-04-03T03:14:28.576Z,8.75
2019-04-03T03:16:55.603Z,8.73
2019-04-03T03:19:22.344Z,8.72
2019-04-03T03:21:48.947Z,8.70
2019-04-03T03:24:15.630Z,8.70
2019-04-03T03:26:42.222Z,8.71
2019-04-03T03:29:17.708Z,8.70
2019-04-03T03:32:01.958Z,8.71
2019-04-03T03:34:06.510Z,8.72
2019-04-03T03:36:33.584Z,8.74
2019-04-03T03:39:00.337Z,8.73
2019-04-03T03:41:27.252Z,8.73
2019-04-03T03:43:54.297Z,8.73
2019-04-03T03:46:21.345Z,8.72
2019-04-03T03:48:48.061Z,8.72
2019-04-03T03:51:14.630Z,8.73
2019-04-03T03:53:44.824Z,8.73
2019-04-03T03:56:09.632Z,8.73
2019-04-03T03:58:36.335Z,8.70
2019-04-03T04:01:02.922Z,8.70
2019-04-03T04:03:29.497Z,8.69
2019-04-03T04:05:56.855Z,8.67
2019-04-03T04:08:23.638Z,8.65
2019-04-03T04:10:50.242Z,8.64
2019-04-03T04:13:16.873Z,8.62
2019-04-03T04:15:43.831Z,8.61
2019-04-03T04:18:13.814Z,8.60
2019-04-03T04:20:39.198Z,8.60
2019-04-03T04:23:06.217Z,8.61
2019-04-03T04:25:32.811Z,8.62
2019-04-03T04:27:59.669Z,8.64
2019-04-03T04:30:26.251Z,8.64
2019-04-03T04:32:52.820Z,8.64
2019-04-03T04:35:21.449Z,8.65
2019-04-03T04:37:47.700Z,8.66
2019-04-03T04:40:14.267Z,8.66
2019-04-03T04:42:40.976Z,8.68
2019-04-03T04:45:07.595Z,8.69
2019-04-03T04:47:34.166Z,8.70
2019-04-03T04:50:00.970Z,8.72
2019-04-03T04:52:28.214Z,8.76
2019-04-03T04:54:54.962Z,8.79
2019-04-03T04:57:21.533Z,8.81
2019-04-03T04:59:48.109Z,8.86
2019-04-03T05:02:14.833Z,8.88
2019-04-03T05:04:41.429Z,8.91
2019-04-03T05:07:08.187Z,8.95
2019-04-03T05:09:35.505Z,8.97
2019-04-03T05:12:02.233Z,9.01
2019-04-03T05:14:28.991Z,9.05
2019-04-03T05:16:56.253Z,9.11
2019-04-03T05:19:23.000Z,9.18
2019-04-03T05:21:52.185Z,9.33
2019-04-03T05:24:17.877Z,9.63
2019-04-03T05:26:44.459Z,9.81
2019-04-03T05:29:11.065Z,9.89
2019-04-03T05:31:39.011Z,9.94
2019-04-03T05:34:06.097Z,9.97
2019-04-03T05:36:32.924Z,9.99
2019-04-03T05:39:02.409Z,10.01
2019-04-03T05:41:28.667Z,10.14
2019-04-03T05:43:55.403Z,10.40
2019-04-03T05:46:22.135Z,10.57
2019-04-03T05:48:49.000Z,10.64
2019-04-03T05:51:15.923Z,10.68
2019-04-03T05:53:42.482Z,10.68
2019-04-03T05:56:11.590Z,10.75
2019-04-03T05:58:37.440Z,10.78
2019-04-03T06:01:06.828Z,10.83
2019-04-03T06:03:42.241Z,10.87
2019-04-03T06:06:00.829Z,10.90
2019-04-03T06:08:27.415Z,10.96
2019-04-03T06:10:56.733Z,11.02
2019-04-03T06:13:23.326Z,11.08
2019-04-03T06:15:52.775Z,11.15
2019-04-03T06:18:18.254Z,11.21
2019-04-03T06:20:44.945Z,11.30
2019-04-03T06:23:11.516Z,11.39
2019-04-03T06:25:38.132Z,11.47
2019-04-03T06:28:04.807Z,11.55
2019-04-03T06:30:31.632Z,11.63
2019-04-03T06:33:00.904Z,11.72
2019-04-03T06:35:26.581Z,11.79
2019-04-03T06:37:53.596Z,11.90
2019-04-03T06:40:20.244Z,11.98
2019-04-03T06:42:49.097Z,12.08
2019-04-03T06:45:16.197Z,12.21
2019-04-03T06:47:42.948Z,12.35
2019-04-03T06:50:11.857Z,12.49
2019-04-03T06:52:37.859Z,12.62
2019-04-03T06:55:04.795Z,12.78
2019-04-03T06:57:31.509Z,12.93
2019-04-03T06:59:58.120Z,13.05
2019-04-03T07:02:27.296Z,13.12
2019-04-03T07:04:53.018Z,13.24
2019-04-03T07:07:32.106Z,13.33
2019-04-03T07:09:50.332Z,13.44
2019-04-03T07:12:16.399Z,13.56
2019-04-03T07:14:43.396Z,13.66
2019-04-03T07:17:10.076Z,13.77
2019-04-03T07:19:37.901Z,13.82
2019-04-03T07:22:04.956Z,13.92
2019-04-03T07:24:31.849Z,14.04
2019-04-03T07:26:59.286Z,14.15
2019-04-03T07:29:26.221Z,14.27
2019-04-03T07:31:55.183Z,14.42
2019-04-03T07:34:21.291Z,14.50
2019-04-03T07:36:47.857Z,14.59
2019-04-03T07:39:14.442Z,14.67
2019-04-03T07:41:41.738Z,14.76
2019-04-03T07:44:08.457Z,14.86
2019-04-03T07:46:35.176Z,14.93
2019-04-03T07:49:01.791Z,15.03
2019-04-03T07:51:28.591Z,15.11
2019-04-03T07:53:55.213Z,15.21
2019-04-03T07:56:21.787Z,15.31
2019-04-03T07:58:48.357Z,15.43
2019-04-03T08:01:18.205Z,15.57
2019-04-03T08:03:43.312Z,15.70
2019-04-03T08:06:09.961Z,15.83
2019-04-03T08:08:36.614Z,15.91
2019-04-03T08:11:03.239Z,16.05
2019-04-03T08:13:30.011Z,16.13
2019-04-03T08:15:56.640Z,16.24
2019-04-03T08:18:23.251Z,16.36
2019-04-03T08:20:50.407Z,16.46
2019-04-03T08:23:17.002Z,16.62
2019-04-03T08:25:47.241Z,16.76
2019-04-03T08:28:11.925Z,16.93
2019-04-03T08:30:39.632Z,17.09
2019-04-03T08:33:16.599Z,17.26
2019-04-03T08:35:36.005Z,17.42
2019-04-03T08:38:03.196Z,17.61
2019-04-03T08:40:29.983Z,17.75
2019-04-03T08:42:59.301Z,17.87
2019-04-03T08:45:24.998Z,17.99
2019-04-03T08:47:51.696Z,18.13
2019-04-03T08:50:18.356Z,18.32
2019-04-03T08:52:44.998Z,18.53
2019-04-03T08:55:14.102Z,18.71
2019-04-03T08:57:40.092Z,18.88
2019-04-03T09:00:06.684Z,19.05
2019-04-03T09:02:33.297Z,19.26
2019-04-03T09:05:00.033Z,19.43
2019-04-03T09:07:26.827Z,19.59
2019-04-03T09:09:53.474Z,19.66
2019-04-03T09:12:20.095Z,19.73
2019-04-03T09:14:46.684Z,19.84
2019-04-03T09:17:13.371Z,19.91
2019-04-03T09:19:41.699Z,19.94
2019-04-03T09:22:08.344Z,20.02
2019-04-03T09:24:35.018Z,20.06
2019-04-03T09:27:01.945Z,20.09
2019-04-03T09:29:28.620Z,20.20
2019-04-03T09:31:56.218Z,20.28
2019-04-03T09:34:23.322Z,20.38
2019-04-03T09:36:49.928Z,20.53
2019-04-03T09:39:16.518Z,20.72
2019-04-03T09:41:43.146Z,20.93
2019-04-03T09:44:09.961Z,21.09
2019-04-03T09:46:36.751Z,21.25
2019-04-03T09:49:03.474Z,21.38
2019-04-03T09:51:30.568Z,21.51
2019-04-03T09:53:58.080Z,21.65
2019-04-03T09:56:25.122Z,21.83
2019-04-03T09:58:51.714Z,22.01
2019-04-03T10:01:18.923Z,22.18
2019-04-03T10:03:45.779Z,22.33
2019-04-03T10:06:12.376Z,22.48
2019-04-03T10:08:40.336Z,22.54
2019-04-03T10:11:07.289Z,22.65
2019-04-03T10:13:33.888Z,22.79
2019-04-03T10:16:03.147Z,22.92
2019-04-03T10:18:28.798Z,23.09
2019-04-03T10:20:55.389Z,23.26
2019-04-03T10:23:22.227Z,23.48
2019-04-03T10:25:49.097Z,23.72
2019-04-03T10:28:15.777Z,23.96
2019-04-03T10:30:42.374Z,24.30
2019-04-03T10:33:08.954Z,24.61
2019-04-03T10:35:38.459Z,24.97
2019-04-03T10:38:05.197Z,25.32
2019-04-03T10:40:32.038Z,25.64
2019-04-03T10:43:00.891Z,25.96
2019-04-03T10:45:26.989Z,26.30
2019-04-03T10:47:55.701Z,26.57
2019-04-03T10:50:21.922Z,26.92
2019-04-03T10:52:49.319Z,27.21
2019-04-03T10:55:16.089Z,27.60
2019-04-03T10:57:42.897Z,27.97
2019-04-03T11:00:10.110Z,28.37
2019-04-03T11:02:36.866Z,28.77
2019-04-03T11:05:03.473Z,29.23
2019-04-03T11:07:30.085Z,29.72
2019-04-03T11:09:56.672Z,30.19
2019-04-03T11:12:23.408Z,30.76
2019-04-03T11:14:50.011Z,31.35
2019-04-03T11:17:18.146Z,31.96
2019-04-03T11:19:44.978Z,32.57
2019-04-03T11:22:11.610Z,33.16
2019-04-03T11:24:41.646Z,33.63
2019-04-03T11:27:07.097Z,34.23
2019-04-03T11:29:33.856Z,34.66
2019-04-03T11:32:00.469Z,34.88
2019-04-03T11:34:27.808Z,35.18
2019-04-03T11:36:55.597Z,35.48
2019-04-03T11:39:22.194Z,36.02
2019-04-03T11:41:48.871Z,36.52
2019-04-03T11:44:15.477Z,36.99
2019-04-03T11:46:42.380Z,37.46
2019-04-03T11:49:09.079Z,38.10
2019-04-03T11:51:35.700Z,38.65
2019-04-03T11:54:02.402Z,39.28
2019-04-03T11:56:29.109Z,39.85
2019-04-03T11:58:55.742Z,40.26
2019-04-03T12:01:22.340Z,40.48
2019-04-03T12:03:50.572Z,40.48
2019-04-03T12:06:19.543Z,40.33
2019-04-03T12:08:46.058Z,39.82
2019-04-03T12:11:12.802Z,39.62
2019-04-03T12:13:39.729Z,39.82
2019-04-03T12:16:06.397Z,40.59
2019-04-03T12:18:34.174Z,40.90
2019-04-03T12:21:00.981Z,41.38
2019-04-03T12:23:27.834Z,41.99
2019-04-03T12:25:54.948Z,42.63
2019-04-03T12:28:21.825Z,43.10
2019-04-03T12:30:48.556Z,43.65
2019-04-03T12:33:15.193Z,43.84
2019-04-03T12:35:42.872Z,44.33
2019-04-03T12:38:09.590Z,44.75
2019-04-03T12:40:36.188Z,44.99
2019-04-03T12:43:03.194Z,45.26
2019-04-03T12:45:30.243Z,45.34
2019-04-03T12:47:57.018Z,45.11
2019-04-03T12:50:26.845Z,44.68
2019-04-03T12:52:51.956Z,44.19
2019-04-03T12:55:18.542Z,44.22
2019-04-03T12:57:45.212Z,44.63
2019-04-03T13:00:12.969Z,44.93
2019-04-03T13:02:41.316Z,45.45
2019-04-03T13:05:08.080Z,45.82
2019-04-03T13:07:36.704Z,46.14
2019-04-03T13:10:04.637Z,45.98
2019-04-03T13:12:31.415Z,45.99
2019-04-03T13:14:58.262Z,45.73
2019-04-03T13:17:24.887Z,45.33
2019-04-03T13:19:51.479Z,45.64
2019-04-03T13:22:18.842Z,45.71
2019-04-03T13:24:47.398Z,45.97
2019-04-03T13:27:13.858Z,46.06
2019-04-03T13:29:41.266Z,46.07
2019-04-03T13:32:07.921Z,46.17
2019-04-03T13:34:34.509Z,46.05
2019-04-03T13:37:01.120Z,45.93
2019-04-03T13:39:27.815Z,45.98
2019-04-03T13:41:54.488Z,46.18
2019-04-03T13:44:21.093Z,46.33
2019-04-03T13:46:47.662Z,46.16
2019-04-03T13:49:16.926Z,45.99
2019-04-03T13:51:42.578Z,45.88
2019-04-03T13:54:09.484Z,45.32
2019-04-03T13:56:36.143Z,44.34
2019-04-03T13:59:02.742Z,43.49
2019-04-03T14:01:29.327Z,42.91
2019-04-03T14:03:55.957Z,42.34
2019-04-03T14:06:22.888Z,41.76
2019-04-03T14:08:49.886Z,41.70
2019-04-03T14:11:16.659Z,41.41
2019-04-03T14:13:44.294Z,40.99
2019-04-03T14:16:19.938Z,40.35
2019-04-03T14:18:40.765Z,39.80
2019-04-03T14:21:08.332Z,39.14
2019-04-03T14:23:35.931Z,38.51
2019-04-03T14:26:06.485Z,37.89
2019-04-03T14:28:33.256Z,37.34
2019-04-03T14:30:59.607Z,36.75
2019-04-03T14:33:26.244Z,35.61
2019-04-03T14:35:54.772Z,34.52
2019-04-03T14:38:21.182Z,33.45
2019-04-03T14:40:48.015Z,32.46
2019-04-03T14:43:15.293Z,31.83
2019-04-03T14:45:43.196Z,31.20
2019-04-03T14:48:10.290Z,30.88
2019-04-03T14:50:38.256Z,30.78
2019-04-03T14:53:05.181Z,30.90
2019-04-03T14:55:32.063Z,31.24
2019-04-03T14:58:00.176Z,31.67
2019-04-03T15:00:30.271Z,32.03
2019-04-03T15:02:56.916Z,32.26
2019-04-03T15:05:23.443Z,32.46
2019-04-03T15:07:50.929Z,32.79
2019-04-03T15:10:18.506Z,33.19
2019-04-03T15:12:45.507Z,33.52
2019-04-03T15:15:12.151Z,33.57
2019-04-03T15:17:39.072Z,33.54
2019-04-03T15:20:05.861Z,33.22
2019-04-03T15:22:33.524Z,32.58
2019-04-03T15:25:00.498Z,32.00
2019-04-03T15:27:28.112Z,31.01
2019-04-03T15:29:55.527Z,29.81
2019-04-03T15:32:22.242Z,28.64
2019-04-03T15:34:50.729Z,27.61
2019-04-03T15:37:17.187Z,26.60
2019-04-03T15:39:43.810Z,25.61
2019-04-03T15:42:10.642Z,24.79
2019-04-03T15:44:37.478Z,24.11
2019-04-03T15:47:04.196Z,23.58
2019-04-03T15:49:30.817Z,23.14
2019-04-03T15:51:57.412Z,22.72
2019-04-03T15:54:26.307Z,22.36
2019-04-03T15:56:52.373Z,22.03
2019-04-03T15:59:19.013Z,21.70
2019-04-03T16:01:45.715Z,21.42
2019-04-03T16:04:12.516Z,21.17
2019-04-03T16:06:39.280Z,20.96
2019-04-03T16:09:05.929Z,20.73
2019-04-03T16:11:32.524Z,20.55
2019-04-03T16:13:59.167Z,20.38
2019-04-03T16:16:28.404Z,20.25
2019-04-03T16:18:54.215Z,20.11
2019-04-03T16:21:22.395Z,19.99
2019-04-03T16:23:49.306Z,19.90
2019-04-03T16:26:15.916Z,19.81
2019-04-03T16:28:42.966Z,19.72
2019-04-03T16:31:09.702Z,19.61
2019-04-03T16:33:37.006Z,19.50
2019-04-03T16:36:04.279Z,19.40
2019-04-03T16:38:31.304Z,19.32
2019-04-03T16:40:58.090Z,19.22
2019-04-03T16:43:24.742Z,19.12
2019-04-03T16:45:51.362Z,19.01
2019-04-03T16:48:18.894Z,18.88
2019-04-03T16:50:46.683Z,18.73
2019-04-03T16:53:13.283Z,18.59
2019-04-03T16:55:39.877Z,18.44
2019-04-03T16:58:06.715Z,18.31
2019-04-03T17:00:33.564Z,18.19
2019-04-03T17:03:00.249Z,18.08
2019-04-03T17:05:26.848Z,17.97
2019-04-03T17:07:54.876Z,17.86
2019-04-03T17:10:21.857Z,17.76
2019-04-03T17:12:50.100Z,17.68
2019-04-03T17:15:16.908Z,17.58
2019-04-03T17:17:45.687Z,17.49
2019-04-03T17:20:11.899Z,17.43
2019-04-03T17:22:40.921Z,17.34
2019-04-03T17:25:06.925Z,17.26
2019-04-03T17:27:33.564Z,17.16
2019-04-03T17:30:00.213Z,17.07
2019-04-03T17:32:28.948Z,17.00
2019-04-03T17:34:55.207Z,16.91
2019-04-03T17:37:22.852Z,16.81
2019-04-03T17:39:52.356Z,16.72
2019-04-03T17:42:18.500Z,16.64
2019-04-03T17:44:45.398Z,16.53
2019-04-03T17:47:12.072Z,16.43
2019-04-03T17:49:38.675Z,16.34
2019-04-03T17:52:05.714Z,16.27
2019-04-03T17:54:32.459Z,16.18
2019-04-03T17:56:59.066Z,16.10
2019-04-03T17:59:25.654Z,16.03
2019-04-03T18:01:52.508Z,15.97
2019-04-03T18:04:20.189Z,15.91
2019-04-03T18:06:47.426Z,15.86
2019-04-03T18:09:14.025Z,15.78
2019-04-03T18:11:42.717Z,15.73
2019-04-03T18:14:08.961Z,15.68
2019-04-03T18:16:35.558Z,15.63
2019-04-03T18:19:04.662Z,15.58
2019-04-03T18:21:30.488Z,15.52
2019-04-03T18:23:57.081Z,15.46
2019-04-03T18:26:23.796Z,15.38
2019-04-03T18:28:50.403Z,15.32
2019-04-03T18:31:17.008Z,15.24
2019-04-03T18:33:43.603Z,15.18
2019-04-03T18:36:10.237Z,15.13
2019-04-03T18:38:38.531Z,15.09
2019-04-03T18:41:05.174Z,15.05
2019-04-03T18:43:31.781Z,15.02
2019-04-03T18:46:00.115Z,14.98
2019-04-03T18:48:26.714Z,14.94
2019-04-03T18:50:54.656Z,14.91
2019-04-03T18:53:21.250Z,14.87
2019-04-03T18:55:47.868Z,14.84
2019-04-03T18:58:14.471Z,14.81
2019-04-03T19:00:41.101Z,14.76
2019-04-03T19:03:07.714Z,14.74
2019-04-03T19:05:34.359Z,14.72
2019-04-03T19:08:12.550Z,14.67
2019-04-03T19:10:29.293Z,14.64
2019-04-03T19:12:55.896Z,14.60
2019-04-03T19:15:22.601Z,14.57
2019-04-03T19:17:59.488Z,14.52
2019-04-03T19:20:17.586Z,14.48
2019-04-03T19:22:44.178Z,14.43
2019-04-03T19:25:10.779Z,14.37
2019-04-03T19:27:37.376Z,14.32
2019-04-03T19:30:06.774Z,14.27
2019-04-03T19:32:33.283Z,14.22
2019-04-03T19:34:59.940Z,14.19
2019-04-03T19:37:26.719Z,14.15
2019-04-03T19:39:53.320Z,14.12
2019-04-03T19:42:19.931Z,14.10
2019-04-03T19:44:47.077Z,14.06
2019-04-03T19:47:14.907Z,14.03
2019-04-03T19:49:41.480Z,14.01
2019-04-03T19:52:09.063Z,13.98
2019-04-03T19:54:35.663Z,13.95
2019-04-03T19:57:02.297Z,13.93
2019-04-03T19:59:30.974Z,13.90
2019-04-03T20:01:57.231Z,13.87
2019-04-03T20:04:23.819Z,13.86
2019-04-03T20:06:50.455Z,13.84
2019-04-03T20:09:17.834Z,13.82
2019-04-03T20:11:44.653Z,13.81
2019-04-03T20:14:11.996Z,13.80
2019-04-03T20:16:38.768Z,13.77
2019-04-03T20:19:05.359Z,13.75
2019-04-03T20:21:32.018Z,13.74
2019-04-03T20:23:58.610Z,13.73
2019-04-03T20:26:25.231Z,13.71
2019-04-03T20:28:51.832Z,13.69
2019-04-03T20:31:18.457Z,13.67
2019-04-03T20:33:45.059Z,13.65
2019-04-03T20:36:11.696Z,13.64
2019-04-03T20:38:38.279Z,13.63
2019-04-03T20:41:04.922Z,13.63
2019-04-03T20:43:31.514Z,13.61
2019-04-03T20:45:58.099Z,13.61
2019-04-03T20:48:28.020Z,13.59
2019-04-03T20:50:53.032Z,13.57
2019-04-03T20:53:19.645Z,13.55
2019-04-03T20:55:46.246Z,13.53
2019-04-03T20:58:12.846Z,13.51
2019-04-03T21:00:39.448Z,13.50
2019-04-03T21:03:06.043Z,13.50
2019-04-03T21:05:32.768Z,13.47
2019-04-03T21:07:59.379Z,13.46
2019-04-03T21:10:25.979Z,13.43
2019-04-03T21:12:52.576Z,13.42
2019-04-03T21:15:19.167Z,13.41
2019-04-03T21:17:45.781Z,13.37
2019-04-03T21:20:12.360Z,13.33
2019-04-03T21:22:38.952Z,13.28
2019-04-03T21:25:06.127Z,13.20
2019-04-03T21:27:32.852Z,13.15
2019-04-03T21:29:59.443Z,13.07
2019-04-03T21:32:26.893Z,12.99
2019-04-03T21:34:54.386Z,12.91
2019-04-03T21:37:21.022Z,12.84
2019-04-03T21:39:47.609Z,12.78
2019-04-03T21:42:14.240Z,12.73
2019-04-03T21:44:40.844Z,12.69
2019-04-03T21:47:07.469Z,12.65
2019-04-03T21:49:34.064Z,12.61
2019-04-03T21:52:00.721Z,12.57
2019-04-03T21:54:27.390Z,12.52
2019-04-03T21:56:54.054Z,12.49
2019-04-03T21:59:20.644Z,12.45
2019-04-03T22:01:47.267Z,12.43
2019-04-03T22:04:13.870Z,12.40
2019-04-03T22:06:40.513Z,12.36
2019-04-03T22:09:07.108Z,12.30
2019-04-03T22:11:35.470Z,12.25
2019-04-03T22:14:02.047Z,12.17
2019-04-03T22:16:28.667Z,12.10
2019-04-03T22:18:55.566Z,12.03
2019-04-03T22:21:22.242Z,11.98
2019-04-03T22:23:48.836Z,11.94
2019-04-03T22:26:15.502Z,11.91
2019-04-03T22:28:42.100Z,11.88
2019-04-03T22:31:08.708Z,11.86
2019-04-03T22:33:35.309Z,11.86
2019-04-03T22:36:03.260Z,11.86
2019-04-03T22:38:30.227Z,11.85
2019-04-03T22:40:56.837Z,11.84
2019-04-03T22:43:23.456Z,11.84
2019-04-03T22:45:50.720Z,11.83
2019-04-03T22:48:17.849Z,11.83
2019-04-03T22:50:44.464Z,11.83
2019-04-03T22:53:11.243Z,11.83
2019-04-03T22:55:37.974Z,11.83
2019-04-03T22:58:04.611Z,11.83
2019-04-03T23:00:31.201Z,11.84
2019-04-03T23:02:57.935Z,11.84
2019-04-03T23:05:24.559Z,11.84
2019-04-03T23:07:52.019Z,11.84
2019-04-03T23:10:19.357Z,11.84
2019-04-03T23:12:45.984Z,11.83
2019-04-03T23:15:12.577Z,11.83
2019-04-03T23:17:39.190Z,11.82
2019-04-03T23:20:05.795Z,11.81
2019-04-03T23:22:32.435Z,11.81
2019-04-03T23:24:59.526Z,11.78
2019-04-03T23:27:26.844Z,11.76
2019-04-03T23:29:53.448Z,11.75
2019-04-03T23:32:20.059Z,11.71
2019-04-03T23:34:49.414Z,11.70
2019-04-03T23:37:15.013Z,11.67
2019-04-03T23:39:41.613Z,11.63
2019-04-03T23:42:08.216Z,11.61
2019-04-03T23:44:34.814Z,11.59
2019-04-03T23:47:01.424Z,11.57
2019-04-03T23:49:28.031Z,11.54
2019-04-03T23:51:54.632Z,11.53
2019-04-03T23:54:21.234Z,11.50
2019-04-03T23:56:47.840Z,11.47
2019-04-03T23:59:14.442Z,11.46
